Terminal Aerodrome Forecast
Issued by NWS

Home | Current Version | Previous Version | Text Only | Print | Product List | Glossary On
Versions: 1 2 3 4 5 6 7 8 9 10 11 12 13
000
FTUS44 KOUN 191744
TAFWWR
TAF
KWWR 191744Z 1918/2018 16014G19KT P6SM BKN015
      TEMPO 1918/1920 SCT015
     FM192100 16015G22KT P6SM OVC010
     FM200000 17011KT P6SM OVC009
     FM200600 19008KT P6SM OVC200
     FM201200 24008KT P6SM SKC=

USA.gov is the U.S. government's official web portal to all federal, state and local government web resources and services.